sensor_id;sensor_type;location;lat;lon;timestamp;pressure;altitude;pressure_sealevel;temperature;humidity
50682;BME280;36779;52.168;20.878;2024-01-11T00:49:40;101345.59;;;-6.95;69.94
50682;BME280;36779;52.168;20.878;2024-01-11T00:57:44;101340.12;;;-6.89;69.95
50682;BME280;36779;52.168;20.878;2024-01-11T01:24:24;101327.10;;;-6.68;70.02
50682;BME280;36779;52.168;20.878;2024-01-11T01:27:13;101328.45;;;-6.66;70.15
50682;BME280;36779;52.168;20.878;2024-01-11T01:30:01;101336.41;;;-6.67;69.90
50682;BME280;36779;52.168;20.878;2024-01-11T01:32:53;101334.63;;;-6.64;70.15
50682;BME280;36779;52.168;20.878;2024-01-11T01:35:43;101335.59;;;-6.60;70.10
50682;BME280;36779;52.168;20.878;2024-01-11T02:10:33;101320.83;;;-6.83;70.21
50682;BME280;36779;52.168;20.878;2024-01-11T02:37:39;101299.90;;;-7.01;70.35
50682;BME280;36779;52.168;20.878;2024-01-11T03:29:48;101270.39;;;-6.27;70.42
50682;BME280;36779;52.168;20.878;2024-01-11T03:32:55;101279.01;;;-6.33;70.57
50682;BME280;36779;52.168;20.878;2024-01-11T03:35:45;101261.68;;;-6.40;70.57
50682;BME280;36779;52.168;20.878;2024-01-11T03:38:37;101249.00;;;-6.46;70.50
50682;BME280;36779;52.168;20.878;2024-01-11T03:42:42;101234.77;;;-6.51;70.51
50682;BME280;36779;52.168;20.878;2024-01-11T03:45:25;101223.43;;;-6.55;70.51
50682;BME280;36779;52.168;20.878;2024-01-11T03:53:05;101209.11;;;-6.49;70.66
50682;BME280;36779;52.168;20.878;2024-01-11T03:55:59;101203.47;;;-6.44;70.71
50682;BME280;36779;52.168;20.878;2024-01-11T03:58:51;101193.87;;;-6.40;70.77
50682;BME280;36779;52.168;20.878;2024-01-11T04:01:41;101188.27;;;-6.36;70.86
50682;BME280;36779;52.168;20.878;2024-01-11T04:04:14;101177.82;;;-6.34;70.84
50682;BME280;36779;52.168;20.878;2024-01-11T04:06:57;101167.90;;;-6.31;70.83
50682;BME280;36779;52.168;20.878;2024-01-11T04:09:48;101180.48;;;-6.29;70.92
50682;BME280;36779;52.168;20.878;2024-01-11T04:12:28;101190.14;;;-6.28;70.72
50682;BME280;36779;52.168;20.878;2024-01-11T04:15:38;101196.90;;;-6.28;70.78
50682;BME280;36779;52.168;20.878;2024-01-11T04:18:27;101189.19;;;-6.25;70.84
50682;BME280;36779;52.168;20.878;2024-01-11T04:21:23;101188.27;;;-6.22;71.02
50682;BME280;36779;52.168;20.878;2024-01-11T04:24:13;101184.25;;;-6.20;71.00
50682;BME280;36779;52.168;20.878;2024-01-11T04:27:03;101181.06;;;-6.17;70.97
50682;BME280;36779;52.168;20.878;2024-01-11T04:39:38;101188.53;;;-6.18;70.89
50682;BME280;36779;52.168;20.878;2024-01-11T04:43:02;101183.76;;;-6.21;70.87
50682;BME280;36779;52.168;20.878;2024-01-11T05:42:43;101125.96;;;-6.01;71.36
50682;BME280;36779;52.168;20.878;2024-01-11T05:50:24;101128.81;;;-5.97;71.40
50682;BME280;36779;52.168;20.878;2024-01-11T05:58:08;101106.80;;;-5.90;71.36
50682;BME280;36779;52.168;20.878;2024-01-11T06:00:57;101110.37;;;-5.87;71.48
50682;BME280;36779;52.168;20.878;2024-01-11T06:07:59;101087.09;;;-5.84;71.49
50682;BME280;36779;52.168;20.878;2024-01-11T06:10:48;101087.17;;;-5.81;71.61
50682;BME280;36779;52.168;20.878;2024-01-11T06:18:30;101079.45;;;-5.77;71.53
50682;BME280;36779;52.168;20.878;2024-01-11T06:21:20;101079.13;;;-5.78;71.56
50682;BME280;36779;52.168;20.878;2024-01-11T06:27:48;101072.51;;;-5.77;71.52
50682;BME280;36779;52.168;20.878;2024-01-11T06:30:40;101073.36;;;-5.76;71.70
50682;BME280;36779;52.168;20.878;2024-01-11T06:33:30;101070.36;;;-5.74;71.57
50682;BME280;36779;52.168;20.878;2024-01-11T06:59:10;101038.71;;;-5.51;71.92
50682;BME280;36779;52.168;20.878;2024-01-11T07:02:03;101046.17;;;-5.52;71.87
50682;BME280;36779;52.168;20.878;2024-01-11T07:14:39;101043.19;;;-5.50;71.85
50682;BME280;36779;52.168;20.878;2024-01-11T07:17:29;101051.57;;;-5.52;71.81
50682;BME280;36779;52.168;20.878;2024-01-11T07:25:09;101026.44;;;-5.40;71.97
50682;BME280;36779;52.168;20.878;2024-01-11T07:37:43;101031.79;;;-5.28;72.02
50682;BME280;36779;52.168;20.878;2024-01-11T07:40:24;101031.80;;;-5.22;72.26
50682;BME280;36779;52.168;20.878;2024-01-11T08:02:30;101037.30;;;-4.98;72.26
50682;BME280;36779;52.168;20.878;2024-01-11T08:10:11;101041.15;;;-4.93;72.37
50682;BME280;36779;52.168;20.878;2024-01-11T08:36:31;101045.95;;;-4.69;72.58
50682;BME280;36779;52.168;20.878;2024-01-11T08:39:21;101050.85;;;-4.65;72.62
50682;BME280;36779;52.168;20.878;2024-01-11T08:56:40;101057.45;;;-4.50;72.61
50682;BME280;36779;52.168;20.878;2024-01-11T09:17:49;101035.48;;;-4.31;72.75
50682;BME280;36779;52.168;20.878;2024-01-11T09:55:03;100970.21;;;-3.82;73.12
50682;BME280;36779;52.168;20.878;2024-01-11T09:57:58;100970.72;;;-3.82;73.06
50682;BME280;36779;52.168;20.878;2024-01-11T10:00:56;100972.34;;;-3.83;73.11
50682;BME280;36779;52.168;20.878;2024-01-11T10:03:54;100968.52;;;-3.83;73.10
50682;BME280;36779;52.168;20.878;2024-01-11T10:06:47;100962.68;;;-3.85;73.02
50682;BME280;36779;52.168;20.878;2024-01-11T10:09:42;100956.75;;;-3.89;73.10
50682;BME280;36779;52.168;20.878;2024-01-11T10:12:37;100946.48;;;-3.93;72.97
50682;BME280;36779;52.168;20.878;2024-01-11T10:15:29;100945.88;;;-3.95;73.03
50682;BME280;36779;52.168;20.878;2024-01-11T10:50:01;100950.73;;;-3.77;73.28
50682;BME280;36779;52.168;20.878;2024-01-11T10:53:08;100947.42;;;-3.76;73.29
50682;BME280;36779;52.168;20.878;2024-01-11T10:56:11;100948.26;;;-3.75;73.26
50682;BME280;36779;52.168;20.878;2024-01-11T10:59:05;100944.27;;;-3.75;73.31
50682;BME280;36779;52.168;20.878;2024-01-11T11:02:14;100942.31;;;-3.74;73.23
50682;BME280;36779;52.168;20.878;2024-01-11T11:05:07;100945.91;;;-3.73;73.21
50682;BME280;36779;52.168;20.878;2024-01-11T11:08:16;100940.86;;;-3.68;73.31
50682;BME280;36779;52.168;20.878;2024-01-11T11:11:12;100935.11;;;-3.63;73.29
50682;BME280;36779;52.168;20.878;2024-01-11T11:14:06;100926.30;;;-3.60;73.30
50682;BME280;36779;52.168;20.878;2024-01-11T11:17:23;100916.76;;;-3.56;73.29
50682;BME280;36779;52.168;20.878;2024-01-11T11:20:29;100912.61;;;-3.52;73.38
50682;BME280;36779;52.168;20.878;2024-01-11T12:10:37;100855.85;;;-3.10;73.60
50682;BME280;36779;52.168;20.878;2024-01-11T12:17:37;100855.70;;;-3.03;73.81
50682;BME280;36779;52.168;20.878;2024-01-11T12:20:34;100860.95;;;-2.99;73.64
50682;BME280;36779;52.168;20.878;2024-01-11T12:23:28;100852.45;;;-2.96;73.91
50682;BME280;36779;52.168;20.878;2024-01-11T12:26:15;100851.55;;;-2.91;73.98
50682;BME280;36779;52.168;20.878;2024-01-11T12:29:15;100847.13;;;-2.89;73.93
50682;BME280;36779;52.168;20.878;2024-01-11T12:32:10;100843.02;;;-2.91;73.83
50682;BME280;36779;52.168;20.878;2024-01-11T12:35:07;100843.48;;;-2.93;73.76
50682;BME280;36779;52.168;20.878;2024-01-11T12:38:08;100848.98;;;-2.92;73.72
50682;BME280;36779;52.168;20.878;2024-01-11T12:41:07;100846.27;;;-2.86;73.91
50682;BME280;36779;52.168;20.878;2024-01-11T12:44:03;100846.42;;;-2.80;73.89
50682;BME280;36779;52.168;20.878;2024-01-11T12:47:06;100851.78;;;-2.76;73.85
50682;BME280;36779;52.168;20.878;2024-01-11T12:50:02;100855.02;;;-2.70;73.83
50682;BME280;36779;52.168;20.878;2024-01-11T12:52:42;100853.00;;;-2.68;73.90
50682;BME280;36779;52.168;20.878;2024-01-11T12:56:05;100861.38;;;-2.65;73.93
50682;BME280;36779;52.168;20.878;2024-01-11T13:27:48;100830.42;;;-2.49;74.14
50682;BME280;36779;52.168;20.878;2024-01-11T13:30:27;100831.91;;;-2.43;74.15
50682;BME280;36779;52.168;20.878;2024-01-11T13:33:20;100832.66;;;-2.41;74.00
50682;BME280;36779;52.168;20.878;2024-01-11T13:36:18;100844.18;;;-2.38;74.09
50682;BME280;36779;52.168;20.878;2024-01-11T13:39:12;100841.03;;;-2.41;74.02
50682;BME280;36779;52.168;20.878;2024-01-11T13:42:12;100834.17;;;-2.40;74.12
50682;BME280;36779;52.168;20.878;2024-01-11T13:45:07;100835.71;;;-2.39;74.17
50682;BME280;36779;52.168;20.878;2024-01-11T13:48:08;100835.38;;;-2.39;74.17
50682;BME280;36779;52.168;20.878;2024-01-11T13:55:10;100821.45;;;-2.39;74.25
50682;BME280;36779;52.168;20.878;2024-01-11T13:58:09;100807.61;;;-2.37;74.35
50682;BME280;36779;52.168;20.878;2024-01-11T14:01:11;100806.74;;;-2.33;74.22
50682;BME280;36779;52.168;20.878;2024-01-11T14:04:06;100804.13;;;-2.29;74.14
50682;BME280;36779;52.168;20.878;2024-01-11T14:06:57;100798.51;;;-2.25;74.34
50682;BME280;36779;52.168;20.878;2024-01-11T14:09:57;100786.20;;;-2.19;74.40
50682;BME280;36779;52.168;20.878;2024-01-11T14:12:52;100780.54;;;-2.13;74.48
50682;BME280;36779;52.168;20.878;2024-01-11T14:55:16;100798.67;;;-1.55;74.32
50682;BME280;36779;52.168;20.878;2024-01-11T15:17:22;100816.82;;;-1.30;74.75
50682;BME280;36779;52.168;20.878;2024-01-11T15:20:14;100818.66;;;-1.25;74.94
50682;BME280;36779;52.168;20.878;2024-01-11T15:23:05;100822.73;;;-1.23;74.78
50682;BME280;36779;52.168;20.878;2024-01-11T15:25:55;100824.70;;;-1.21;74.87
50682;BME280;36779;52.168;20.878;2024-01-11T15:28:39;100827.83;;;-1.20;74.85
50682;BME280;36779;52.168;20.878;2024-01-11T15:31:34;100824.55;;;-1.17;74.94
50682;BME280;36779;52.168;20.878;2024-01-11T15:34:29;100826.54;;;-1.11;74.97
50682;BME280;36779;52.168;20.878;2024-01-11T16:14:32;100833.61;;;-0.65;75.44
50682;BME280;36779;52.168;20.878;2024-01-11T16:17:24;100839.68;;;-0.64;75.31
50682;BME280;36779;52.168;20.878;2024-01-11T17:05:08;100847.83;;;-0.04;75.21
50682;BME280;36779;52.168;20.878;2024-01-11T17:52:24;100878.45;;;0.24;75.36
50682;BME280;36779;52.168;20.878;2024-01-11T18:29:03;100908.08;;;-0.04;75.59
50682;BME280;36779;52.168;20.878;2024-01-11T18:32:01;100902.17;;;-0.11;75.58
50682;BME280;36779;52.168;20.878;2024-01-11T19:16:54;100928.42;;;-0.25;75.19
50682;BME280;36779;52.168;20.878;2024-01-11T20:09:55;101025.88;;;-1.03;75.10
50682;BME280;36779;52.168;20.878;2024-01-11T20:12:51;101026.16;;;-1.13;75.11
50682;BME280;36779;52.168;20.878;2024-01-11T20:16:02;101028.62;;;-1.24;75.17
50682;BME280;36779;52.168;20.878;2024-01-11T20:18:43;101036.86;;;-1.33;75.28
50682;BME280;36779;52.168;20.878;2024-01-11T20:21:35;101041.73;;;-1.41;75.25
50682;BME280;36779;52.168;20.878;2024-01-11T20:24:30;101047.29;;;-1.48;75.20
50682;BME280;36779;52.168;20.878;2024-01-11T20:27:22;101055.12;;;-1.55;75.31
50682;BME280;36779;52.168;20.878;2024-01-11T20:39:57;101059.54;;;-1.77;75.48
50682;BME280;36779;52.168;20.878;2024-01-11T20:42:41;101056.40;;;-1.84;75.58
50682;BME280;36779;52.168;20.878;2024-01-11T20:45:33;101061.73;;;-1.91;75.61
50682;BME280;36779;52.168;20.878;2024-01-11T20:48:39;101063.35;;;-2.00;75.53
50682;BME280;36779;52.168;20.878;2024-01-11T20:51:38;101072.30;;;-2.10;75.45
50682;BME280;36779;52.168;20.878;2024-01-11T20:54:33;101075.42;;;-2.18;75.47
50682;BME280;36779;52.168;20.878;2024-01-11T20:57:30;101077.27;;;-2.25;75.45
50682;BME280;36779;52.168;20.878;2024-01-11T21:00:25;101079.77;;;-2.30;75.32
50682;BME280;36779;52.168;20.878;2024-01-11T21:03:25;101089.40;;;-2.36;75.46
50682;BME280;36779;52.168;20.878;2024-01-11T21:06:44;101097.86;;;-2.39;75.36
50682;BME280;36779;52.168;20.878;2024-01-11T21:09:48;101100.77;;;-2.41;75.42
50682;BME280;36779;52.168;20.878;2024-01-11T21:12:42;101107.11;;;-2.43;75.41
50682;BME280;36779;52.168;20.878;2024-01-11T21:15:36;101109.56;;;-2.48;75.36
50682;BME280;36779;52.168;20.878;2024-01-11T21:18:39;101112.77;;;-2.54;75.40
50682;BME280;36779;52.168;20.878;2024-01-11T22:11:15;101168.19;;;-3.16;75.13
50682;BME280;36779;52.168;20.878;2024-01-11T23:06:24;101230.64;;;-3.42;75.06
50682;BME280;36779;52.168;20.878;2024-01-11T23:09:41;101236.41;;;-3.49;75.12
50682;BME280;36779;52.168;20.878;2024-01-11T23:13:07;101242.71;;;-3.56;75.20
50682;BME280;36779;52.168;20.878;2024-01-11T23:16:05;101244.20;;;-3.63;75.22
50682;BME280;36779;52.168;20.878;2024-01-11T23:23:48;101250.65;;;-3.80;75.29
50682;BME280;36779;52.168;20.878;2024-01-11T23:36:42;101253.64;;;-4.14;75.42
50682;BME280;36779;52.168;20.878;2024-01-11T23:39:34;101263.98;;;-4.23;75.41
50682;BME280;36779;52.168;20.878;2024-01-11T23:42:30;101266.64;;;-4.31;75.45
50682;BME280;36779;52.168;20.878;2024-01-11T23:45:23;101267.88;;;-4.37;75.33
50682;BME280;36779;52.168;20.878;2024-01-11T23:48:20;101274.66;;;-4.44;75.38
50682;BME280;36779;52.168;20.878;2024-01-11T23:51:30;101274.50;;;-4.50;75.31
50682;BME280;36779;52.168;20.878;2024-01-11T23:54:28;101275.30;;;-4.54;75.25
50682;BME280;36779;52.168;20.878;2024-01-11T23:57:27;101275.55;;;-4.56;75.39
